Watertown Regional Airport
KATY : now visible

Airfield :











YOU CAN JOIN US ON...

 
LOGIN :

Register | Disclaimer

   EN    FR    IT 

 









Legend :    VFR   Marginal VFR   IFR   Intensive IFR   Very Intensive IFR
Visi :
Ceiling :
>= 8 km
>= 3000ft
5 to 8 km
1000 to 3000 ft
1500m to 5 km
500 to 1000 ft
800 to 1500m
200 to 500 ft
< 800m
< 200 ft
Symbols :   Thunderstorms  Fog  Heavy snow  Heavy precipitations  Wind > 20 kt






- Airport Elevation : 1749 ft
- IATA code : ATY


KATY - Watertown Regional

CURRENT METAR :
  • 160753Z AUTO 02008KT 6SM BR OVC003 02/02 A3014 RMK AO2 SLP222 T00220017

EXPIRED METARs :
  • 160719Z AUTO 36008KT 5SM BR BKN004 OVC009 03/02 A3014 RMK AO2 CIG 003V006 T00280022
  • 160653Z AUTO 01009KT 9SM OVC006 03/02 A3014 RMK AO2 SLP222 T00280017
  • 160553Z AUTO 01006KT 9SM OVC007 03/02 A3015 RMK AO2 SLP226 T00280017 10050 20028 400561022 51001

TAF KATY
Valid from the 16 at 06:00 until the 17 at 06:00 UTC


160527Z 1606/1706 03007KT P6SM OVC008
FM160800 01005KT P6SM BKN005
FM161100 01010G16KT P6SM OVC006
FM161700 02011KT P6SM OVC015
FM162000 01011KT P6SM BKN025
FM170400 36008KT P6SM BKN035
KZMP FIR / North America



MET'MAP, your aeronautical weather chart ! - Copyright ORBIFLY December 2007 - Disclaimer

ORBIFLY MET'MAP TEAM :

Programming & Development : Alexandra Zaïnal
Concept & original design : Baudouin d'Aumeries
Assistance for programming : Marc-Olivier Méhu
Technical & hardware support : Manuel Goepfert

Contact : metmap@orbifly.com




SOURCES & CREDITS :

   NOAA       Earth
Advisory